createdAt,value
2019-04-27T00:02:09.401Z,47.37
2019-04-27T00:04:56.812Z,46.37
2019-04-27T00:07:44.224Z,45.70
2019-04-27T00:10:33.421Z,45.23
2019-04-27T00:16:05.613Z,46.77
2019-04-27T00:18:49.700Z,47.93
2019-04-27T00:21:38.087Z,46.27
2019-04-27T00:24:06.448Z,45.27
2019-04-27T00:26:34.731Z,45.30
2019-04-27T00:29:03.829Z,49.07
2019-04-27T00:31:33.634Z,43.10
2019-04-27T00:34:03.575Z,44.33
2019-04-27T00:36:51.186Z,47.08
2019-04-27T00:39:38.597Z,46.13
2019-04-27T00:44:45.862Z,43.63
2019-04-27T00:47:14.154Z,46.05
2019-04-27T00:49:44.230Z,47.67
2019-04-27T00:52:13.899Z,47.13
2019-04-27T00:54:44.004Z,46.80
2019-04-27T00:57:33.112Z,47.30
2019-04-27T01:00:20.759Z,50.08
2019-04-27T01:08:17.041Z,47.57
2019-04-27T01:10:45.344Z,49.67
2019-04-27T01:13:13.614Z,49.47
2019-04-27T01:15:43.046Z,53.30
2019-04-27T01:18:15.398Z,54.67
2019-04-27T01:20:41.916Z,54.77
2019-04-27T01:23:10.822Z,52.37
2019-04-27T01:25:59.737Z,49.70
2019-04-27T01:28:48.960Z,50.90
2019-04-27T01:34:06.116Z,51.80
2019-04-27T01:36:34.403Z,51.15
2019-04-27T01:41:41.682Z,52.23
2019-04-27T01:44:10.049Z,50.73
2019-04-27T01:46:39.616Z,49.70
2019-04-27T01:49:09.210Z,51.02
2019-04-27T01:51:39.111Z,50.90
2019-04-27T01:56:49.147Z,50.70
2019-04-27T01:59:17.420Z,47.20
2019-04-27T02:02:04.810Z,46.70
2019-04-27T02:07:12.129Z,48.38
2019-04-27T02:09:40.408Z,47.30
2019-04-27T02:12:09.361Z,48.67
2019-04-27T02:14:39.061Z,50.63
2019-04-27T02:17:50.927Z,49.73
2019-04-27T02:20:19.758Z,48.40
2019-04-27T02:22:50.746Z,52.53
2019-04-27T02:25:20.951Z,53.95
2019-04-27T02:30:46.966Z,48.90
2019-04-27T02:33:34.377Z,50.10
2019-04-27T02:36:02.681Z,48.70
2019-04-27T02:38:30.955Z,50.20
2019-04-27T02:41:39.996Z,49.63
2019-04-27T02:44:30.116Z,47.63
2019-04-27T02:47:00.342Z,47.60
2019-04-27T02:49:30.428Z,50.00
2019-04-27T02:52:19.699Z,48.03
2019-04-27T02:54:50.266Z,48.98
2019-04-27T02:57:19.837Z,50.33
2019-04-27T02:59:50.018Z,49.87
2019-04-27T03:04:56.553Z,50.63
2019-04-27T03:07:24.835Z,47.33
2019-04-27T03:09:53.124Z,48.02
2019-04-27T03:15:20.556Z,49.70
2019-04-27T03:18:09.910Z,47.53
2019-04-27T03:23:19.887Z,49.88
2019-04-27T03:26:06.716Z,48.60
2019-04-27T03:28:34.993Z,51.55
2019-04-27T03:31:03.348Z,50.60
2019-04-27T03:33:32.672Z,48.50
2019-04-27T03:36:02.963Z,50.10
2019-04-27T03:38:31.634Z,51.20
2019-04-27T03:41:00.579Z,54.07
2019-04-27T03:43:30.391Z,52.70
2019-04-27T03:46:00.557Z,51.00
2019-04-27T03:48:29.549Z,56.80
2019-04-27T03:51:19.927Z,54.40
2019-04-27T03:59:34.853Z,55.70
2019-04-27T04:02:03.154Z,55.03
2019-04-27T04:04:32.790Z,55.80
2019-04-27T04:07:20.800Z,57.88
2019-04-27T04:09:50.265Z,56.50
2019-04-27T04:12:40.049Z,58.58
2019-04-27T04:17:49.553Z,59.77
2019-04-27T04:20:19.577Z,56.57
2019-04-27T04:22:47.324Z,57.17
2019-04-27T04:25:15.604Z,61.80
2019-04-27T04:27:43.894Z,57.50
2019-04-27T04:30:12.712Z,60.93
2019-04-27T04:32:42.260Z,59.77
2019-04-27T04:35:32.615Z,61.70
2019-04-27T04:38:13.144Z,56.05
2019-04-27T04:41:00.536Z,54.75
2019-04-27T04:43:49.071Z,52.50
2019-04-27T04:46:39.778Z,52.23
2019-04-27T04:49:09.288Z,54.67
2019-04-27T04:51:37.072Z,57.15
2019-04-27T04:54:05.376Z,59.10
2019-04-27T04:56:33.632Z,57.70
2019-04-27T04:59:01.917Z,56.67
2019-04-27T05:01:30.203Z,58.20
2019-04-27T05:03:58.997Z,56.17
2019-04-27T05:06:29.266Z,56.80
2019-04-27T05:08:59.462Z,56.73
2019-04-27T05:11:29.759Z,60.20
2019-04-27T05:13:59.336Z,69.33
2019-04-27T05:16:28.707Z,63.47
2019-04-27T05:18:57.056Z,64.43
2019-04-27T05:21:44.446Z,59.80
2019-04-27T05:24:12.727Z,61.33
2019-04-27T05:26:41.009Z,60.45
2019-04-27T05:29:09.342Z,54.38
2019-04-27T05:31:38.848Z,63.52
2019-04-27T05:34:09.398Z,56.60
2019-04-27T05:36:43.551Z,59.50
2019-04-27T05:39:09.608Z,53.50
2019-04-27T05:41:39.308Z,51.20
2019-04-27T05:52:33.786Z,57.20
2019-04-27T05:55:02.061Z,75.93
2019-04-27T05:57:31.442Z,80.50
2019-04-27T06:00:02.325Z,76.73
2019-04-27T06:02:30.557Z,82.23
2019-04-27T06:05:00.011Z,86.07
2019-04-27T06:07:29.608Z,74.73
2019-04-27T06:09:59.829Z,74.80
2019-04-27T06:12:29.659Z,75.60
2019-04-27T06:14:59.963Z,78.00
2019-04-27T06:17:40.900Z,73.05
2019-04-27T06:20:09.261Z,73.77
2019-04-27T06:22:38.992Z,58.10
2019-04-27T06:25:11.305Z,63.27
2019-04-27T06:27:39.581Z,56.57
2019-04-27T06:30:09.330Z,56.02
2019-04-27T06:32:39.319Z,54.65
2019-04-27T06:35:40.971Z,52.77
2019-04-27T06:38:10.189Z,48.87
2019-04-27T06:40:39.276Z,50.00
2019-04-27T06:43:08.650Z,49.60
2019-04-27T06:45:38.803Z,50.57
2019-04-27T06:48:09.473Z,49.10
2019-04-27T06:50:38.986Z,47.23
2019-04-27T06:53:09.089Z,47.45
2019-04-27T06:55:39.188Z,45.97
2019-04-27T06:58:08.995Z,43.80
2019-04-27T07:00:39.418Z,42.20
2019-04-27T07:03:10.298Z,43.50
2019-04-27T07:05:38.806Z,38.73
2019-04-27T07:08:08.987Z,42.08
2019-04-27T07:10:39.150Z,40.00
2019-04-27T07:13:09.368Z,42.78
2019-04-27T07:15:38.700Z,37.87
2019-04-27T07:18:09.609Z,40.12
2019-04-27T07:20:38.872Z,35.80
2019-04-27T07:23:09.412Z,35.83
2019-04-27T07:25:38.889Z,33.80
2019-04-27T07:28:09.156Z,30.83
2019-04-27T07:30:38.824Z,33.40
2019-04-27T07:33:08.755Z,30.10
2019-04-27T07:35:39.276Z,29.00
2019-04-27T07:38:09.717Z,27.98
2019-04-27T07:40:40.013Z,31.80
2019-04-27T07:45:56.949Z,29.53
2019-04-27T07:48:25.227Z,27.50
2019-04-27T07:50:53.508Z,27.60
2019-04-27T07:53:21.800Z,29.18
2019-04-27T07:55:50.095Z,29.00
2019-04-27T07:58:21.909Z,26.90
2019-04-27T08:00:49.201Z,28.20
2019-04-27T08:03:19.525Z,27.07
2019-04-27T08:05:49.103Z,27.50
2019-04-27T08:08:18.983Z,25.72
2019-04-27T08:10:50.141Z,26.17
2019-04-27T08:13:19.502Z,27.40
2019-04-27T08:15:49.633Z,25.80
2019-04-27T08:18:18.938Z,29.20
2019-04-27T08:20:49.076Z,25.57
2019-04-27T08:23:19.547Z,26.10
2019-04-27T08:25:48.986Z,24.27
2019-04-27T08:28:38.634Z,23.93
2019-04-27T08:31:26.083Z,25.00
2019-04-27T08:33:54.366Z,24.75
2019-04-27T08:36:22.667Z,24.18
2019-04-27T08:38:50.951Z,23.10
2019-04-27T08:41:19.661Z,21.63
2019-04-27T08:43:49.275Z,22.50
2019-04-27T08:46:18.666Z,20.37
2019-04-27T08:48:49.006Z,20.10
2019-04-27T08:51:19.463Z,20.23
2019-04-27T08:53:47.667Z,19.30
2019-04-27T08:56:15.948Z,16.80
2019-04-27T08:58:44.232Z,13.67
2019-04-27T09:01:12.504Z,15.33
2019-04-27T09:03:40.794Z,13.97
2019-04-27T09:11:46.209Z,9.30
2019-04-27T09:22:40.665Z,6.63
2019-04-27T09:25:09.466Z,6.50
2019-04-27T09:27:39.136Z,6.90
2019-04-27T09:32:46.558Z,6.30
2019-04-27T09:35:16.159Z,7.15
2019-04-27T09:37:45.864Z,6.65
2019-04-27T09:40:15.082Z,7.08
2019-04-27T09:42:43.351Z,6.40
2019-04-27T09:45:11.710Z,8.33
2019-04-27T09:47:39.992Z,7.60
2019-04-27T09:50:08.431Z,7.50
2019-04-27T09:52:36.705Z,8.13
2019-04-27T09:55:38.569Z,8.48
2019-04-27T09:58:06.863Z,7.00
2019-04-27T10:00:36.454Z,7.90
2019-04-27T10:03:06.595Z,7.30
2019-04-27T10:05:36.695Z,6.13
2019-04-27T10:08:06.183Z,5.10
2019-04-27T10:10:36.963Z,5.00
2019-04-27T10:13:06.824Z,4.73
2019-04-27T10:15:35.646Z,4.30
2019-04-27T10:18:06.088Z,3.77
2019-04-27T10:20:39.010Z,3.35
2019-04-27T10:23:06.207Z,3.37
2019-04-27T10:28:37.269Z,3.27
2019-04-27T10:31:07.084Z,3.60
2019-04-27T10:33:36.723Z,3.30
2019-04-27T10:36:06.479Z,3.95
2019-04-27T10:38:35.958Z,4.17
2019-04-27T10:41:05.685Z,4.05
2019-04-27T10:43:34.422Z,3.80
2019-04-27T10:46:02.693Z,4.50
2019-04-27T10:48:30.968Z,3.92
2019-04-27T10:50:59.239Z,3.60
2019-04-27T10:53:27.508Z,2.43
2019-04-27T10:55:56.579Z,2.10
2019-04-27T10:58:38.683Z,2.70
2019-04-27T11:04:05.945Z,3.00
2019-04-27T11:09:23.248Z,1.90
2019-04-27T11:11:51.513Z,1.80
2019-04-27T11:14:19.778Z,1.63
2019-04-27T11:16:48.071Z,1.45
2019-04-27T11:19:16.920Z,1.90
2019-04-27T11:21:46.344Z,1.32
2019-04-27T11:24:14.609Z,1.50
2019-04-27T11:26:42.903Z,1.50
2019-04-27T11:29:11.170Z,1.60
2019-04-27T11:31:39.516Z,1.70
2019-04-27T11:39:36.002Z,1.20
2019-04-27T11:42:05.747Z,1.40
2019-04-27T11:44:35.857Z,1.70
2019-04-27T11:47:05.835Z,2.40
2019-04-27T11:49:35.870Z,1.13
2019-04-27T11:52:05.728Z,1.40
2019-04-27T11:54:35.609Z,1.63
2019-04-27T11:57:04.099Z,1.70
2019-04-27T11:59:32.366Z,1.65
2019-04-27T12:02:00.651Z,1.60
2019-04-27T12:04:28.924Z,1.60
2019-04-27T12:06:57.186Z,2.10
2019-04-27T12:09:25.456Z,1.80
2019-04-27T12:11:53.752Z,1.50
2019-04-27T12:14:22.015Z,1.50
2019-04-27T12:16:50.303Z,1.60
2019-04-27T12:19:18.559Z,1.30
2019-04-27T12:21:46.833Z,1.40
2019-04-27T12:24:16.105Z,1.33
2019-04-27T12:27:05.781Z,1.87
2019-04-27T12:29:53.321Z,1.50
2019-04-27T12:32:21.976Z,2.10
2019-04-27T12:34:50.251Z,1.62
2019-04-27T12:37:18.528Z,1.20
2019-04-27T12:39:46.808Z,1.50
2019-04-27T12:42:16.043Z,1.40
2019-04-27T12:44:45.111Z,1.30
2019-04-27T12:47:13.383Z,1.80
2019-04-27T12:49:41.659Z,1.37
2019-04-27T12:52:09.939Z,1.53
2019-04-27T12:54:57.321Z,1.10
2019-04-27T12:57:44.716Z,1.10
2019-04-27T13:00:46.247Z,0.90
2019-04-27T13:03:16.086Z,1.40
2019-04-27T13:08:13.678Z,1.50
2019-04-27T13:10:42.017Z,1.00
2019-04-27T13:13:10.297Z,1.40
2019-04-27T13:15:38.569Z,1.67
2019-04-27T13:18:06.839Z,1.53
2019-04-27T13:20:35.882Z,1.50
2019-04-27T13:23:07.089Z,1.55
2019-04-27T13:25:38.229Z,1.75
2019-04-27T13:28:05.712Z,1.50
2019-04-27T13:30:35.783Z,1.47
2019-04-27T13:33:05.319Z,1.30
2019-04-27T13:36:13.647Z,1.10
2019-04-27T13:38:41.912Z,1.33
2019-04-27T13:43:49.141Z,2.33
2019-04-27T13:46:36.531Z,1.57
2019-04-27T13:49:24.013Z,1.40
2019-04-27T13:54:31.235Z,1.83
2019-04-27T13:56:59.515Z,1.40
2019-04-27T13:59:27.790Z,1.82
2019-04-27T14:01:56.059Z,1.60
2019-04-27T14:04:24.329Z,3.27
2019-04-27T14:06:52.671Z,6.40
2019-04-27T14:09:20.960Z,7.80
2019-04-27T14:11:49.219Z,9.67
2019-04-27T14:14:18.433Z,10.23
2019-04-27T14:17:07.869Z,9.23
2019-04-27T14:19:36.819Z,10.43
2019-04-27T14:22:05.083Z,11.10
2019-04-27T14:24:52.531Z,12.33
2019-04-27T14:30:49.739Z,12.05
2019-04-27T14:33:18.581Z,8.10
2019-04-27T14:35:49.820Z,8.40
2019-04-27T14:38:19.135Z,8.25
2019-04-27T14:40:50.270Z,7.67
2019-04-27T14:43:18.948Z,7.93
2019-04-27T14:45:48.563Z,7.43
2019-04-27T14:48:18.510Z,8.90
2019-04-27T14:50:48.558Z,9.27
2019-04-27T14:53:17.993Z,7.53
2019-04-27T14:55:46.263Z,8.07
2019-04-27T14:58:14.554Z,7.00
2019-04-27T15:00:42.825Z,7.30
2019-04-27T15:03:11.091Z,8.67
2019-04-27T15:05:39.370Z,8.27
2019-04-27T15:08:09.698Z,7.77
2019-04-27T15:10:37.656Z,9.40
2019-04-27T15:13:07.943Z,9.00
2019-04-27T15:15:35.962Z,8.25
2019-04-27T15:18:05.596Z,9.40
2019-04-27T15:23:13.276Z,7.70
2019-04-27T15:25:45.196Z,9.10
2019-04-27T15:31:22.442Z,7.67
2019-04-27T15:33:59.010Z,7.97
2019-04-27T15:36:46.362Z,8.20
2019-04-27T15:39:33.752Z,8.70
2019-04-27T15:44:50.987Z,8.30
2019-04-27T15:47:20.269Z,7.63
2019-04-27T15:49:51.080Z,7.57
2019-04-27T15:52:19.276Z,6.40
2019-04-27T15:54:48.102Z,7.55
2019-04-27T16:02:58.309Z,8.25
2019-04-27T16:05:28.718Z,7.92
2019-04-27T16:08:15.136Z,7.40
2019-04-27T16:10:40.288Z,6.53
2019-04-27T16:15:58.406Z,8.87
2019-04-27T16:21:14.810Z,6.30
2019-04-27T16:23:43.508Z,7.30
2019-04-27T16:26:14.976Z,7.30
2019-04-27T16:28:43.169Z,6.92
2019-04-27T16:31:11.768Z,6.83
2019-04-27T16:33:40.452Z,7.23
2019-04-27T16:36:09.693Z,6.87
2019-04-27T16:41:28.180Z,8.03
2019-04-27T16:43:58.207Z,9.68
2019-04-27T16:46:28.534Z,8.00
2019-04-27T16:48:59.433Z,8.18
2019-04-27T16:51:29.733Z,8.50
2019-04-27T16:53:58.450Z,9.03
2019-04-27T16:56:28.497Z,8.53
2019-04-27T16:59:11.478Z,8.37
2019-04-27T17:04:11.373Z,6.85
2019-04-27T17:06:39.125Z,6.95
2019-04-27T17:09:09.211Z,6.40
2019-04-27T17:11:38.792Z,6.63
2019-04-27T17:22:03.651Z,5.97
2019-04-27T17:27:11.592Z,6.10
2019-04-27T17:30:01.686Z,5.83
2019-04-27T17:32:51.068Z,6.80
2019-04-27T17:35:19.347Z,7.43
2019-04-27T17:37:48.861Z,7.30
2019-04-27T17:40:17.682Z,7.37
2019-04-27T17:42:45.953Z,6.90
2019-04-27T17:45:14.305Z,7.77
2019-04-27T17:47:42.581Z,6.80
2019-04-27T17:50:50.890Z,6.22
2019-04-27T17:53:20.427Z,7.57
2019-04-27T17:55:49.173Z,7.50
2019-04-27T17:58:18.047Z,8.23
2019-04-27T18:03:17.591Z,8.40
2019-04-27T18:05:50.066Z,9.27
2019-04-27T18:08:19.994Z,8.70
2019-04-27T18:10:46.635Z,9.63
2019-04-27T18:13:18.993Z,11.33
2019-04-27T18:15:45.669Z,10.63
2019-04-27T18:18:34.064Z,11.73
2019-04-27T18:21:02.341Z,11.60
2019-04-27T18:26:56.414Z,12.27
2019-04-27T18:29:22.840Z,11.90
2019-04-27T18:31:54.559Z,12.00
2019-04-27T18:34:21.318Z,11.47
2019-04-27T18:36:49.611Z,12.20
2019-04-27T18:39:18.255Z,12.43
2019-04-27T18:41:50.576Z,12.20
2019-04-27T18:44:19.143Z,11.90
2019-04-27T18:46:48.926Z,10.50
2019-04-27T18:49:38.629Z,10.90
2019-04-27T18:52:26.190Z,11.05
2019-04-27T18:54:54.468Z,9.30
2019-04-27T18:57:22.736Z,9.37
2019-04-27T18:59:51.020Z,7.83
2019-04-27T19:02:19.302Z,8.63
2019-04-27T19:04:49.948Z,8.00
2019-04-27T19:07:17.580Z,8.10
2019-04-27T19:09:47.721Z,8.10
2019-04-27T19:12:15.858Z,8.83
2019-04-27T19:14:44.153Z,8.33
2019-04-27T19:17:12.435Z,9.38
2019-04-27T19:19:40.747Z,11.22
2019-04-27T19:22:09.098Z,10.77
2019-04-27T19:24:37.383Z,10.13
2019-04-27T19:27:44.137Z,12.50
2019-04-27T19:30:31.609Z,12.07
2019-04-27T19:32:59.902Z,12.50
2019-04-27T19:35:28.745Z,12.73
2019-04-27T19:37:59.017Z,14.45
2019-04-27T19:40:29.039Z,13.98
2019-04-27T19:42:58.838Z,15.08
2019-04-27T19:45:29.124Z,16.17
2019-04-27T19:47:57.295Z,16.00
2019-04-27T19:50:25.565Z,15.90
2019-04-27T19:52:53.869Z,16.17
2019-04-27T19:55:22.154Z,14.60
2019-04-27T19:57:50.441Z,12.30
2019-04-27T20:01:09.682Z,12.18
2019-04-27T20:06:16.144Z,11.63
2019-04-27T20:09:03.540Z,10.50
2019-04-27T20:11:31.832Z,10.50
2019-04-27T20:14:00.803Z,11.27
2019-04-27T20:16:31.777Z,11.97
2019-04-27T20:19:01.480Z,12.03
2019-04-27T20:21:31.108Z,11.73
2019-04-27T20:23:59.380Z,12.57
2019-04-27T20:26:27.658Z,11.60
2019-04-27T20:28:55.927Z,8.18
2019-04-27T20:31:24.201Z,6.17
2019-04-27T20:33:53.969Z,8.45
2019-04-27T20:36:22.482Z,6.50
2019-04-27T20:38:50.998Z,7.00
2019-04-27T20:41:21.830Z,7.12
2019-04-27T20:43:51.058Z,6.90
2019-04-27T20:46:22.668Z,7.30
2019-04-27T20:48:51.239Z,7.20
2019-04-27T20:54:11.514Z,7.60
2019-04-27T20:56:39.693Z,7.20
2019-04-27T20:59:07.954Z,8.37
2019-04-27T21:01:36.227Z,8.53
2019-04-27T21:04:04.500Z,9.00
2019-04-27T21:06:51.903Z,9.13
2019-04-27T21:09:21.323Z,7.83
2019-04-27T21:11:50.169Z,8.10
2019-04-27T21:14:18.435Z,7.30
2019-04-27T21:19:25.652Z,7.40
2019-04-27T21:21:53.937Z,7.50
2019-04-27T21:24:22.788Z,7.17
2019-04-27T21:26:52.210Z,7.08
2019-04-27T21:29:20.986Z,6.80
2019-04-27T21:31:51.994Z,6.75
2019-04-27T21:34:20.458Z,6.40
2019-04-27T21:36:48.739Z,7.30
2019-04-27T21:39:16.988Z,5.57
2019-04-27T21:41:45.277Z,6.10
2019-04-27T21:44:13.538Z,5.17
2019-04-27T21:46:41.845Z,5.67
2019-04-27T21:49:12.447Z,5.60
2019-04-27T21:52:01.229Z,5.23
2019-04-27T21:57:08.144Z,4.80
2019-04-27T21:59:36.412Z,5.27
2019-04-27T22:04:43.809Z,4.87
2019-04-27T22:07:12.061Z,4.77
2019-04-27T22:09:43.054Z,5.90
2019-04-27T22:12:11.234Z,5.23
2019-04-27T22:14:40.320Z,5.30
2019-04-27T22:17:08.602Z,4.67
2019-04-27T22:19:36.872Z,5.10
2019-04-27T22:24:44.092Z,6.00
2019-04-27T22:27:12.354Z,5.43
2019-04-27T22:29:40.646Z,5.78
2019-04-27T22:32:08.914Z,6.53
2019-04-27T22:34:37.168Z,5.62
2019-04-27T22:37:05.447Z,6.70
2019-04-27T22:42:31.773Z,6.30
2019-04-27T22:47:47.742Z,6.57
2019-04-27T22:50:16.013Z,7.00
2019-04-27T22:52:44.270Z,7.50
2019-04-27T22:55:12.542Z,7.70
2019-04-27T23:00:48.887Z,7.00
2019-04-27T23:06:06.108Z,8.15
2019-04-27T23:08:34.384Z,8.78
2019-04-27T23:11:02.825Z,7.47
2019-04-27T23:13:31.164Z,7.58
2019-04-27T23:18:48.387Z,10.00
2019-04-27T23:21:16.670Z,8.40
2019-04-27T23:23:44.936Z,8.60
2019-04-27T23:26:13.225Z,8.70
2019-04-27T23:28:41.494Z,9.20
2019-04-27T23:36:27.662Z,9.10
2019-04-27T23:38:55.920Z,10.43
2019-04-27T23:41:24.277Z,10.10
2019-04-27T23:43:52.563Z,11.20
2019-04-27T23:46:21.486Z,11.17
2019-04-27T23:48:52.061Z,10.65
2019-04-27T23:51:39.942Z,10.60
2019-04-27T23:54:08.231Z,10.80
2019-04-27T23:56:36.499Z,11.40
2019-04-27T23:59:04.857Z,11.30
